createdAt,value
2017-08-18T00:01:00.128Z,12.50
2017-08-18T00:03:27.438Z,12.93
2017-08-18T00:05:54.776Z,13.13
2017-08-18T00:08:22.085Z,11.73
2017-08-18T00:10:49.418Z,12.57
2017-08-18T00:13:16.720Z,12.53
2017-08-18T00:15:44.064Z,13.23
2017-08-18T00:18:11.394Z,13.60
2017-08-18T00:20:38.759Z,12.63
2017-08-18T00:23:06.065Z,12.23
2017-08-18T00:25:33.403Z,13.20
2017-08-18T00:28:00.716Z,12.30
2017-08-18T00:30:28.049Z,13.40
2017-08-18T00:32:55.367Z,13.47
2017-08-18T00:35:22.713Z,12.70
2017-08-18T00:37:50.051Z,12.70
2017-08-18T00:40:17.414Z,12.73
2017-08-18T00:42:44.745Z,13.67
2017-08-18T00:45:12.064Z,13.97
2017-08-18T00:47:39.419Z,13.60
2017-08-18T00:50:06.735Z,13.37
2017-08-18T00:52:34.084Z,13.90
2017-08-18T00:55:01.421Z,14.23
2017-08-18T00:57:29.128Z,13.60
2017-08-18T00:59:56.445Z,14.87
2017-08-18T01:02:23.779Z,14.40
2017-08-18T01:04:51.081Z,13.97
2017-08-18T01:07:18.458Z,13.20
2017-08-18T01:09:45.775Z,12.90
2017-08-18T01:12:13.131Z,12.70
2017-08-18T01:14:40.441Z,12.70
2017-08-18T01:17:07.830Z,12.80
2017-08-18T01:19:35.133Z,12.83
2017-08-18T01:22:02.494Z,12.53
2017-08-18T01:24:29.815Z,12.43
2017-08-18T01:26:57.159Z,12.97
2017-08-18T01:29:24.521Z,12.57
2017-08-18T01:31:51.847Z,12.50
2017-08-18T01:34:19.194Z,13.13
2017-08-18T01:36:46.513Z,13.23
2017-08-18T01:39:13.874Z,12.20
2017-08-18T01:41:41.207Z,12.17
2017-08-18T01:44:08.582Z,12.60
2017-08-18T01:46:35.914Z,12.23
2017-08-18T01:49:03.247Z,13.07
2017-08-18T01:51:30.586Z,12.23
2017-08-18T01:53:57.947Z,13.60
2017-08-18T01:56:25.702Z,12.70
2017-08-18T01:58:53.035Z,13.60
2017-08-18T02:01:20.342Z,13.13
2017-08-18T02:03:47.682Z,12.83
2017-08-18T02:06:15.050Z,12.70
2017-08-18T02:08:42.373Z,14.00
2017-08-18T02:11:09.734Z,13.00
2017-08-18T02:13:37.598Z,14.43
2017-08-18T02:16:04.912Z,13.90
2017-08-18T02:18:32.266Z,12.40
2017-08-18T02:20:59.599Z,14.50
2017-08-18T02:23:26.942Z,14.53
2017-08-18T02:25:54.281Z,15.10
2017-08-18T02:28:21.592Z,15.00
2017-08-18T02:30:48.931Z,14.50
2017-08-18T02:33:16.243Z,14.20
2017-08-18T02:35:43.576Z,14.57
2017-08-18T02:38:10.890Z,14.43
2017-08-18T02:40:38.544Z,15.27
2017-08-18T02:43:05.889Z,16.27
2017-08-18T02:45:33.240Z,16.20
2017-08-18T02:48:00.545Z,15.67
2017-08-18T02:50:27.937Z,15.23
2017-08-18T02:52:55.241Z,15.37
2017-08-18T02:55:22.595Z,15.43
2017-08-18T02:57:49.918Z,17.70
2017-08-18T03:00:17.259Z,16.50
2017-08-18T03:02:44.615Z,16.77
2017-08-18T03:05:11.939Z,18.67
2017-08-18T03:07:39.299Z,17.90
2017-08-18T03:10:06.609Z,17.90
2017-08-18T03:12:33.973Z,17.30
2017-08-18T03:15:01.308Z,16.83
2017-08-18T03:17:28.675Z,16.60
2017-08-18T03:19:55.974Z,18.00
2017-08-18T03:22:23.339Z,18.60
2017-08-18T03:24:50.653Z,20.00
2017-08-18T03:27:18.027Z,18.07
2017-08-18T03:29:45.350Z,20.10
2017-08-18T03:32:12.731Z,19.03
2017-08-18T03:34:40.043Z,20.57
2017-08-18T03:37:07.369Z,20.50
2017-08-18T03:39:34.742Z,18.80
2017-08-18T03:42:02.056Z,21.20
2017-08-18T03:44:29.405Z,21.20
2017-08-18T03:46:56.743Z,20.40
2017-08-18T03:49:24.089Z,21.43
2017-08-18T03:51:51.412Z,21.80
2017-08-18T03:54:18.777Z,22.40
2017-08-18T03:56:46.550Z,19.17
2017-08-18T03:59:13.871Z,20.60
2017-08-18T04:01:41.199Z,22.53
2017-08-18T04:04:08.538Z,21.77
2017-08-18T04:06:35.873Z,21.40
2017-08-18T04:09:03.228Z,21.60
2017-08-18T04:11:30.762Z,21.57
2017-08-18T04:13:58.139Z,19.50
2017-08-18T04:16:25.869Z,18.87
2017-08-18T04:18:53.215Z,18.10
2017-08-18T04:21:20.553Z,19.00
2017-08-18T04:23:47.901Z,18.70
2017-08-18T04:26:15.239Z,19.43
2017-08-18T04:28:42.570Z,19.50
2017-08-18T04:31:09.902Z,18.57
2017-08-18T04:33:37.252Z,19.10
2017-08-18T04:36:06.404Z,18.70
2017-08-18T04:38:33.738Z,19.80
2017-08-18T04:41:01.036Z,19.20
2017-08-18T04:43:28.378Z,18.33
2017-08-18T04:45:55.688Z,19.33
2017-08-18T04:48:23.058Z,19.00
2017-08-18T04:50:50.385Z,19.20
2017-08-18T04:53:17.726Z,19.87
2017-08-18T04:55:45.231Z,19.20
2017-08-18T04:58:12.603Z,19.63
2017-08-18T05:00:39.959Z,19.70
2017-08-18T05:03:07.299Z,18.57
2017-08-18T05:05:34.637Z,19.17
2017-08-18T05:08:01.983Z,20.00
2017-08-18T05:10:29.661Z,19.40
2017-08-18T05:12:56.981Z,20.50
2017-08-18T05:15:24.309Z,19.27
2017-08-18T05:17:52.551Z,20.33
2017-08-18T05:20:19.928Z,20.13
2017-08-18T05:22:47.242Z,19.73
2017-08-18T05:25:14.617Z,20.80
2017-08-18T05:27:41.948Z,22.53
2017-08-18T05:30:09.273Z,20.60
2017-08-18T05:32:36.594Z,21.20
2017-08-18T05:35:04.898Z,19.93
2017-08-18T05:37:32.221Z,19.80
2017-08-18T05:39:59.595Z,19.40
2017-08-18T05:42:26.931Z,20.90
2017-08-18T05:44:54.277Z,22.00
2017-08-18T05:47:21.610Z,22.17
2017-08-18T05:49:48.989Z,21.00
2017-08-18T05:52:16.296Z,21.63
2017-08-18T05:54:43.658Z,21.83
2017-08-18T05:57:10.991Z,18.90
2017-08-18T05:59:38.293Z,19.63
2017-08-18T06:02:05.651Z,19.93
2017-08-18T06:04:32.958Z,19.20
2017-08-18T06:07:00.323Z,20.03
2017-08-18T06:09:27.642Z,17.63
2017-08-18T06:11:54.980Z,18.40
2017-08-18T06:14:22.314Z,17.43
2017-08-18T06:16:49.723Z,17.30
2017-08-18T06:19:17.030Z,16.97
2017-08-18T06:21:44.369Z,16.50
2017-08-18T06:24:11.736Z,16.80
2017-08-18T06:26:39.070Z,16.50
2017-08-18T06:29:06.666Z,15.23
2017-08-18T06:31:34.251Z,16.17
2017-08-18T06:34:01.561Z,14.67
2017-08-18T06:36:29.012Z,15.80
2017-08-18T06:38:56.366Z,14.93
2017-08-18T06:41:23.712Z,15.40
2017-08-18T06:43:51.053Z,14.23
2017-08-18T06:46:18.405Z,14.30
2017-08-18T06:48:45.721Z,14.37
2017-08-18T06:51:13.217Z,14.73
2017-08-18T06:53:40.746Z,13.37
2017-08-18T06:56:08.074Z,13.10
2017-08-18T06:58:35.426Z,12.70
2017-08-18T07:01:02.739Z,13.17
2017-08-18T07:03:30.678Z,12.97
2017-08-18T07:05:57.985Z,12.13
2017-08-18T07:08:25.336Z,12.13
2017-08-18T07:10:52.651Z,11.80
2017-08-18T07:13:19.997Z,10.87
2017-08-18T07:15:47.310Z,11.53
2017-08-18T07:18:14.654Z,11.97
2017-08-18T07:20:41.992Z,11.63
2017-08-18T07:23:09.317Z,12.20
2017-08-18T07:25:36.687Z,12.57
2017-08-18T07:28:04.330Z,14.07
2017-08-18T07:30:31.699Z,13.50
2017-08-18T07:32:59.027Z,13.07
2017-08-18T07:35:26.364Z,14.00
2017-08-18T07:37:53.682Z,13.87
2017-08-18T07:40:21.134Z,12.80
2017-08-18T07:42:48.495Z,13.63
2017-08-18T07:45:15.848Z,12.80
2017-08-18T07:47:43.180Z,12.37
2017-08-18T07:50:10.883Z,11.50
2017-08-18T07:52:38.256Z,10.93
2017-08-18T07:55:05.605Z,11.37
2017-08-18T07:57:32.940Z,10.73
2017-08-18T08:00:00.316Z,11.20
2017-08-18T08:02:27.644Z,11.20
2017-08-18T08:04:54.959Z,11.37
2017-08-18T08:07:22.294Z,10.37
2017-08-18T08:09:49.637Z,9.00
2017-08-18T08:12:16.985Z,9.13
2017-08-18T08:14:44.313Z,8.87
2017-08-18T08:17:11.681Z,9.37
2017-08-18T08:19:38.995Z,8.37
2017-08-18T08:22:06.355Z,9.07
2017-08-18T08:24:33.703Z,6.50
2017-08-18T08:27:01.038Z,6.17
2017-08-18T08:29:28.403Z,6.70
2017-08-18T08:31:55.740Z,6.70
2017-08-18T08:34:23.102Z,6.33
2017-08-18T08:36:50.430Z,7.27
2017-08-18T08:39:17.725Z,7.53
2017-08-18T08:41:45.065Z,7.60
2017-08-18T08:44:12.393Z,7.37
2017-08-18T08:46:39.758Z,6.50
2017-08-18T08:49:07.065Z,5.90
2017-08-18T08:51:34.421Z,5.20
2017-08-18T08:54:01.734Z,4.83
2017-08-18T08:56:29.065Z,5.03
2017-08-18T08:58:56.368Z,5.23
2017-08-18T09:01:23.685Z,4.60
2017-08-18T09:03:51.043Z,4.90
2017-08-18T09:06:18.707Z,4.37
2017-08-18T09:08:46.105Z,4.27
2017-08-18T09:11:13.460Z,4.80
2017-08-18T09:13:40.829Z,5.10
2017-08-18T09:16:08.157Z,4.80
2017-08-18T09:18:35.480Z,4.90
2017-08-18T09:21:02.819Z,4.70
2017-08-18T09:23:30.290Z,4.70
2017-08-18T09:25:57.626Z,4.67
2017-08-18T09:28:24.953Z,4.53
2017-08-18T09:30:52.284Z,4.60
2017-08-18T09:33:19.659Z,4.87
2017-08-18T09:35:47.024Z,4.50
2017-08-18T09:38:14.350Z,4.20
2017-08-18T09:40:41.668Z,4.50
2017-08-18T09:43:09.022Z,4.37
2017-08-18T09:45:36.346Z,4.37
2017-08-18T09:48:09.511Z,4.30
2017-08-18T09:50:43.048Z,4.30
2017-08-18T09:53:16.375Z,4.00
2017-08-18T09:55:49.679Z,3.97
2017-08-18T09:58:23.026Z,4.30
2017-08-18T10:00:50.317Z,4.33
2017-08-18T10:03:17.688Z,4.27
2017-08-18T10:05:45.002Z,4.53
2017-08-18T10:08:12.299Z,4.40
2017-08-18T10:10:39.647Z,4.33
2017-08-18T10:13:06.992Z,4.27
2017-08-18T10:15:34.355Z,4.40
2017-08-18T10:18:01.680Z,4.80
2017-08-18T10:20:29.014Z,4.13
2017-08-18T10:22:56.654Z,4.63
2017-08-18T10:25:24.010Z,4.10
2017-08-18T10:27:51.329Z,4.07
2017-08-18T10:30:18.655Z,4.00
2017-08-18T10:32:45.959Z,3.97
2017-08-18T10:35:13.275Z,3.93
2017-08-18T10:37:40.617Z,4.03
2017-08-18T10:40:07.974Z,4.37
2017-08-18T10:42:35.278Z,4.20
2017-08-18T10:45:02.574Z,4.47
2017-08-18T10:47:29.894Z,4.30
2017-08-18T10:49:58.046Z,4.50
2017-08-18T10:52:25.367Z,4.70
2017-08-18T10:54:52.699Z,4.70
2017-08-18T10:57:20.067Z,4.90
2017-08-18T10:59:47.589Z,4.60
2017-08-18T11:02:14.983Z,4.20
2017-08-18T11:04:42.261Z,3.90
2017-08-18T11:07:09.592Z,4.40
2017-08-18T11:09:36.877Z,3.60
2017-08-18T11:12:04.196Z,3.90
2017-08-18T11:14:31.502Z,3.90
2017-08-18T11:16:58.793Z,3.50
2017-08-18T11:19:26.143Z,3.80
2017-08-18T11:21:53.462Z,3.27
2017-08-18T11:24:20.819Z,3.70
2017-08-18T11:26:48.147Z,3.20
2017-08-18T11:29:15.498Z,3.33
2017-08-18T11:31:43.119Z,3.10
2017-08-18T11:34:10.434Z,3.63
2017-08-18T11:36:37.737Z,3.67
2017-08-18T11:39:05.067Z,3.40
2017-08-18T11:41:32.391Z,3.50
2017-08-18T11:43:59.944Z,3.50
2017-08-18T11:46:27.297Z,3.83
2017-08-18T11:48:54.657Z,3.47
2017-08-18T11:51:21.965Z,3.70
2017-08-18T11:53:49.405Z,3.50
2017-08-18T11:56:16.749Z,3.80
2017-08-18T11:58:44.088Z,3.80
2017-08-18T12:01:11.412Z,3.97
2017-08-18T12:03:38.755Z,3.67
2017-08-18T12:06:06.045Z,3.90
2017-08-18T12:08:33.365Z,4.00
2017-08-18T12:11:00.705Z,4.50
2017-08-18T12:13:28.062Z,4.27
2017-08-18T12:15:55.369Z,4.23
2017-08-18T12:18:22.697Z,4.40
2017-08-18T12:20:50.000Z,4.10
2017-08-18T12:23:17.298Z,4.57
2017-08-18T12:25:44.635Z,4.27
2017-08-18T12:28:11.956Z,4.30
2017-08-18T12:30:39.433Z,4.40
2017-08-18T12:33:06.745Z,3.83
2017-08-18T12:35:34.232Z,3.70
2017-08-18T12:38:01.546Z,4.47
2017-08-18T12:40:28.847Z,4.17
2017-08-18T12:42:56.149Z,4.33
2017-08-18T12:45:23.486Z,4.40
2017-08-18T12:47:50.801Z,4.70
2017-08-18T12:50:18.276Z,4.77
2017-08-18T12:52:45.600Z,3.90
2017-08-18T12:55:12.988Z,4.37
2017-08-18T12:57:40.301Z,4.60
2017-08-18T13:00:07.594Z,4.43
2017-08-18T13:02:34.909Z,3.93
2017-08-18T13:05:02.201Z,4.30
2017-08-18T13:07:29.518Z,4.33
2017-08-18T13:09:56.817Z,4.20
2017-08-18T13:12:24.129Z,3.90
2017-08-18T13:14:51.465Z,4.40
2017-08-18T13:17:18.882Z,3.90
2017-08-18T13:19:46.245Z,4.00
2017-08-18T13:22:13.553Z,4.30
2017-08-18T13:24:40.927Z,3.90
2017-08-18T13:27:08.234Z,4.13
2017-08-18T13:29:35.545Z,3.73
2017-08-18T13:32:02.858Z,3.93
2017-08-18T13:34:30.172Z,4.20
2017-08-18T13:36:57.490Z,8.03
2017-08-18T13:39:24.772Z,6.67
2017-08-18T13:41:52.122Z,4.70
2017-08-18T13:44:19.454Z,3.83
2017-08-18T13:46:46.774Z,3.40
2017-08-18T13:49:14.062Z,3.70
2017-08-18T13:51:41.377Z,4.00
2017-08-18T13:54:08.680Z,4.20
2017-08-18T13:56:35.993Z,4.17
2017-08-18T13:59:03.284Z,4.07
2017-08-18T14:01:30.638Z,4.27
2017-08-18T14:03:57.995Z,4.10
2017-08-18T14:06:25.459Z,4.10
2017-08-18T14:08:52.839Z,3.80
2017-08-18T14:11:20.141Z,4.17
2017-08-18T14:13:47.497Z,4.07
2017-08-18T14:16:14.860Z,3.80
2017-08-18T14:18:42.151Z,3.97
2017-08-18T14:21:09.471Z,4.60
2017-08-18T14:23:36.829Z,4.30
2017-08-18T14:26:09.966Z,4.33
2017-08-18T14:28:37.333Z,4.80
2017-08-18T14:31:04.880Z,4.50
2017-08-18T14:33:32.168Z,4.60
2017-08-18T14:35:59.499Z,4.77
2017-08-18T14:38:26.844Z,4.87
2017-08-18T14:40:54.168Z,4.30
2017-08-18T14:43:21.544Z,4.63
2017-08-18T14:45:48.825Z,4.80
2017-08-18T14:48:16.235Z,4.90
2017-08-18T14:50:43.560Z,4.63
2017-08-18T14:53:10.945Z,5.03
2017-08-18T14:55:38.321Z,4.60
2017-08-18T14:58:05.628Z,5.00
2017-08-18T15:00:32.948Z,4.90
2017-08-18T15:03:00.323Z,5.00
2017-08-18T15:05:27.633Z,5.03
2017-08-18T15:07:55.089Z,5.53
2017-08-18T15:10:22.598Z,4.50
2017-08-18T15:12:49.888Z,4.17
2017-08-18T15:15:17.332Z,4.27
2017-08-18T15:17:44.714Z,4.10
2017-08-18T15:20:12.045Z,4.40
2017-08-18T15:22:39.400Z,4.03
2017-08-18T15:25:06.733Z,4.03
2017-08-18T15:27:34.034Z,4.00
2017-08-18T15:30:01.380Z,4.23
2017-08-18T15:32:28.669Z,4.20
2017-08-18T15:34:55.982Z,4.13
2017-08-18T15:37:23.299Z,4.43
2017-08-18T15:39:50.634Z,4.13
2017-08-18T15:42:17.922Z,3.93
2017-08-18T15:44:45.245Z,5.03
2017-08-18T15:47:12.881Z,4.17
2017-08-18T15:49:40.191Z,3.73
2017-08-18T15:52:07.519Z,4.03
2017-08-18T15:54:34.985Z,3.93
2017-08-18T15:57:02.306Z,3.73
2017-08-18T15:59:29.594Z,3.63
2017-08-18T16:01:56.926Z,3.87
2017-08-18T16:04:24.279Z,3.50
2017-08-18T16:06:51.600Z,4.07
2017-08-18T16:09:18.943Z,3.93
2017-08-18T16:11:46.305Z,4.40
2017-08-18T16:14:13.601Z,4.43
2017-08-18T16:16:40.896Z,4.40
2017-08-18T16:19:08.201Z,4.40
2017-08-18T16:21:35.549Z,4.17
2017-08-18T16:24:02.870Z,3.80
2017-08-18T16:26:30.431Z,4.60
2017-08-18T16:28:57.784Z,4.03
2017-08-18T16:31:25.112Z,4.00
2017-08-18T16:33:52.459Z,4.17
2017-08-18T16:36:19.823Z,3.87
2017-08-18T16:38:47.114Z,3.97
2017-08-18T16:41:14.415Z,4.80
2017-08-18T16:43:41.714Z,4.80
2017-08-18T16:46:09.025Z,4.63
2017-08-18T16:48:36.339Z,5.17
2017-08-18T16:51:04.502Z,5.90
2017-08-18T16:53:31.805Z,5.73
2017-08-18T16:55:59.154Z,5.90
2017-08-18T16:58:26.465Z,6.13
2017-08-18T17:00:53.803Z,6.27
2017-08-18T17:03:21.101Z,6.03
2017-08-18T17:05:48.418Z,5.97
2017-08-18T17:08:15.743Z,5.67
2017-08-18T17:10:43.081Z,6.70
2017-08-18T17:13:10.404Z,6.20
2017-08-18T17:15:37.698Z,6.50
2017-08-18T17:18:05.125Z,6.67
2017-08-18T17:20:32.435Z,6.60
2017-08-18T17:22:59.941Z,6.60
2017-08-18T17:25:27.220Z,5.93
2017-08-18T17:27:54.560Z,7.17
2017-08-18T17:30:21.848Z,7.27
2017-08-18T17:32:49.161Z,7.30
2017-08-18T17:35:16.499Z,7.30
2017-08-18T17:37:43.815Z,7.77
2017-08-18T17:40:11.110Z,7.07
2017-08-18T17:42:38.435Z,7.87
2017-08-18T17:45:05.758Z,6.90
2017-08-18T17:47:33.126Z,7.50
2017-08-18T17:50:00.441Z,7.73
2017-08-18T17:52:27.821Z,7.40
2017-08-18T17:54:55.131Z,7.47
2017-08-18T17:57:22.433Z,7.47
2017-08-18T17:59:49.740Z,7.80
2017-08-18T18:02:17.054Z,7.53
2017-08-18T18:04:44.467Z,7.37
2017-08-18T18:07:11.744Z,7.30
2017-08-18T18:09:39.169Z,8.10
2017-08-18T18:12:06.498Z,8.10
2017-08-18T18:14:33.814Z,8.30
2017-08-18T18:17:01.124Z,9.80
2017-08-18T18:19:28.515Z,0.50
2017-08-18T18:21:55.876Z,0.60
2017-08-18T18:24:23.195Z,0.40
2017-08-18T18:26:50.540Z,0.40
2017-08-18T18:29:17.968Z,0.40
2017-08-18T18:31:45.313Z,0.40
2017-08-18T18:34:12.692Z,0.57
2017-08-18T18:36:41.002Z,0.40
2017-08-18T18:39:08.524Z,0.40
2017-08-18T18:41:35.962Z,0.40
2017-08-18T18:44:04.224Z,0.40
2017-08-18T18:46:32.541Z,0.40
2017-08-18T18:48:59.901Z,0.40
2017-08-18T18:51:28.257Z,0.40
2017-08-18T18:53:56.533Z,0.40
2017-08-18T18:56:23.920Z,0.40
2017-08-18T18:58:51.238Z,0.40
2017-08-18T19:01:18.781Z,0.40
2017-08-18T19:03:47.086Z,0.40
2017-08-18T19:06:15.456Z,0.43
2017-08-18T19:08:42.762Z,0.50
2017-08-18T19:11:10.278Z,0.40
2017-08-18T19:13:37.693Z,0.50
2017-08-18T19:16:06.001Z,0.40
2017-08-18T19:18:33.349Z,0.40
2017-08-18T19:21:02.643Z,0.40
2017-08-18T19:23:30.132Z,0.40
2017-08-18T19:25:57.537Z,0.40
2017-08-18T19:28:25.768Z,0.40
2017-08-18T19:30:53.198Z,0.40
2017-08-18T19:33:20.852Z,0.60
2017-08-18T19:35:48.370Z,0.40
2017-08-18T19:40:49.427Z,0.40
2017-08-18T19:56:15.350Z,0.40
2017-08-18T19:58:43.625Z,0.50
2017-08-18T20:01:10.933Z,0.40
2017-08-18T20:03:38.244Z,0.40
2017-08-18T20:06:05.546Z,0.40
2017-08-18T20:08:32.885Z,0.40
2017-08-18T20:11:00.168Z,0.40
2017-08-18T20:13:27.505Z,0.50
2017-08-18T20:15:54.813Z,0.90
2017-08-18T20:18:22.154Z,0.40
2017-08-18T20:20:49.511Z,0.50
2017-08-18T20:23:16.836Z,0.40
2017-08-18T20:25:44.160Z,0.40
2017-08-18T20:28:11.478Z,0.40
2017-08-18T20:30:38.769Z,0.50
2017-08-18T20:33:06.126Z,0.40
2017-08-18T20:35:33.428Z,0.40
2017-08-18T20:38:00.754Z,0.50
2017-08-18T20:40:28.129Z,0.40
2017-08-18T20:42:55.498Z,0.50
2017-08-18T20:45:22.830Z,0.97
2017-08-18T20:47:50.181Z,0.60
2017-08-18T20:50:17.482Z,0.60
2017-08-18T20:52:44.807Z,0.57
2017-08-18T20:55:12.109Z,0.50
2017-08-18T20:57:39.406Z,0.60
2017-08-18T21:00:06.762Z,0.40
2017-08-18T21:02:34.095Z,0.70
2017-08-18T21:05:01.442Z,0.83
2017-08-18T21:07:29.704Z,0.40
2017-08-18T21:09:57.065Z,0.63
2017-08-18T21:12:24.362Z,0.70
2017-08-18T21:14:51.682Z,0.40
2017-08-18T21:17:19.052Z,0.40
2017-08-18T21:19:46.371Z,0.40
2017-08-18T21:22:13.674Z,0.40
2017-08-18T21:24:41.034Z,0.30
2017-08-18T21:27:08.363Z,0.40
2017-08-18T21:29:35.693Z,0.40
2017-08-18T21:32:02.995Z,0.30
2017-08-18T21:34:30.686Z,0.60
2017-08-18T21:36:58.001Z,0.40
2017-08-18T21:39:25.316Z,0.60
2017-08-18T21:41:52.622Z,0.40
2017-08-18T21:44:19.914Z,0.40
2017-08-18T21:46:47.240Z,0.40
2017-08-18T21:49:14.620Z,0.30
2017-08-18T21:51:41.961Z,0.40
2017-08-18T21:54:10.273Z,0.40
2017-08-18T21:56:37.582Z,0.40
2017-08-18T21:59:04.908Z,0.40
2017-08-18T22:01:32.238Z,0.40
2017-08-18T22:04:00.494Z,0.40
2017-08-18T22:06:28.783Z,0.40
2017-08-18T22:08:56.132Z,0.40
2017-08-18T22:11:23.455Z,0.40
2017-08-18T22:13:51.074Z,0.40
2017-08-18T22:16:18.470Z,0.30
2017-08-18T22:18:45.869Z,0.40
2017-08-18T22:21:13.173Z,0.40
2017-08-18T22:23:40.474Z,0.40
2017-08-18T22:26:07.796Z,0.60
2017-08-18T22:28:35.123Z,0.70
2017-08-18T22:31:02.465Z,0.37
2017-08-18T22:33:29.759Z,0.40
2017-08-18T22:35:57.056Z,0.40
2017-08-18T22:38:24.408Z,0.50
2017-08-18T22:40:51.734Z,0.40
2017-08-18T22:43:19.098Z,0.40
2017-08-18T22:45:46.422Z,0.40
2017-08-18T22:48:13.759Z,0.40
2017-08-18T22:50:41.057Z,0.40
2017-08-18T22:53:08.381Z,0.40
2017-08-18T22:55:35.681Z,0.40
2017-08-18T22:58:03.028Z,0.40
2017-08-18T23:00:30.355Z,0.83
2017-08-18T23:02:57.656Z,0.40
2017-08-18T23:05:24.972Z,0.40
2017-08-18T23:07:52.284Z,0.40
2017-08-18T23:10:20.664Z,0.40
2017-08-18T23:12:48.924Z,0.40
2017-08-18T23:15:16.576Z,0.73
2017-08-18T23:17:43.906Z,0.40
2017-08-18T23:20:11.230Z,0.37
2017-08-18T23:22:38.556Z,0.40
2017-08-18T23:25:06.846Z,0.40
2017-08-18T23:27:34.141Z,0.37
2017-08-18T23:30:01.444Z,0.60
2017-08-18T23:32:28.786Z,0.40
2017-08-18T23:34:58.060Z,0.40
2017-08-18T23:37:25.394Z,0.40
2017-08-18T23:39:52.759Z,0.30
2017-08-18T23:42:20.085Z,0.40
2017-08-18T23:44:47.404Z,0.40
2017-08-18T23:47:14.705Z,0.40
2017-08-18T23:49:42.036Z,0.40
2017-08-18T23:52:09.336Z,0.40
2017-08-18T23:54:36.661Z,0.40
2017-08-18T23:57:03.987Z,0.60
2017-08-18T23:59:31.292Z,0.30
